Pagrindinis puslapis
METAR-TAF:

METAR-TAF

Oro uostai :

Colmar, Prancūzija

platuma: 48-06-37N, ilguma: 7-21-33E, Aukštis: 191 m

Dabartinis oras

Ataskaita buvo paskelbta 22 minutes, ne 03:00 UTC
Vėjas 13 kt iš Pietų/Pietvakarių, svyruoja nuo Pietų/Pietryčių ir Vakarų
Temperatūra 17°C
Drėgmė 48%
Slėgis 1016 hPa
Matomumas 10 km arba daugiau
Apsiniaukę ne aukštis 5200 ft

METAR: LFGA 170300Z AUTO 21013KT 160V260 9999 OVC052 17/06 Q1016

Laikas: 04:22 (03:22 UTC)


TAF: trūkstamas

Orai ataskaitas ir orų prognozės (METAR, TAF).

turimą stotys yra geltonos ir raudonos taškus žemėlapyje.

Perkelti pele per norėdami pamatyti stoties vardą.

Tada spustelėkite, norėdami matyti oro stebėjimo ir prognozės.

Norėdami pakeisti žemėlapį: spustelėkite ant žalios mygtukų su juodo kryžiaus žemyn,; žalią mygtuką su brūkšneliu, jei norite nutolinti; arba žalių rodyklių gretimoms žemėlapius.


METAR-TAF: